Maple Plain, MN (55348)

5:37 PM CDT on July 28, 2015 (GMT -0500)
APRSWXNET | | Change Station
CLOSE
Current Station
Personal Weather Station
Location: Maple Plain, MN
Elevation: 925 ft
Nearby Weather Stations

Elev 925 ft 44.83 °N, 93.39 °W | Updated 19 minutes ago

Overcast
Overcast
82 °F
Feels Like 88 °F
N
9
Wind Variable Wind from South
Gusts 13.0 mph

Today
High -- | Low -- °F
--% Chance of Precip.
Yesterday
High -- | Low -- °F
Precip. -- in
5:54 AM 8:44 PM
Waxing Gibbous, 92% visible
Pressure 29.79 in
Visibility 10.0 miles
Clouds Few 2600 ft
Mostly Cloudy 3400 ft
Overcast 5000 ft
Heat Index 88 °F
Dew Point 73 °F
Humidity 75%
Rainfall in
Snow Depth Not available.
UV 2 out of 12
Pollen .70 out of 12
Air Quality Not available.
Flu Activity Not available.
METAR KFCM 282153Z 21009KT 10SM FEW026 BKN034 OVC050 28/22 A2980 RMK AO2 SLP087 T02780222

More Conditions Fewer Conditions

Pressure 29.79 in
Visibility 10.0 miles
Clouds Few 2600 ft
Mostly Cloudy 3400 ft
Overcast 5000 ft
Heat Index 88 °F
Dew Point 73 °F
Humidity 75%
Rainfall in
Snow Depth Not available.
UV 2 out of 12
Pollen .70 out of 12
Air Quality Not available.
Flu Activity Not available.
METAR KFCM 282153Z 21009KT 10SM FEW026 BKN034 OVC050 28/22 A2980 RMK AO2 SLP087 T02780222

More Conditions Fewer Conditions

10-Day Weather Forecast

×

Almanac

Astronomy

Jul. 28, 2015 Rise Set
Actual Time
Civil Twilight
Nautical Twilight
Astronomical Twilight
Moon
Length of Visible Light
Length of Day
Tomorrow will be .
, % of the Moon is Illuminated

Today's Extremes

State Highs State Lows

Community

WunderPhotos

Upload Photos

1,841,963 photos uploaded!

WunderBlogs® & News

Nearby

Air Quality

  Air Quality AQ Index Pollutant
Not available.

Snow Depth

Station Depth Elevation

Earthquake Activity

City Distance Mag. Time & Date
Minimum magnitude displayed is 2.5.

Coastal Water Temperatures

Place Temperature

Stations

Nearby Weather Stations

Station Location Temp. Windchill Dew Point Humidity Wind Precip. Elev Updated Type